<?xml version="1.0" encoding="UTF-8" standalone="no" ?>
<gpx xmlns="http://www.topografix.com/GPX/1/1" xmlns:xsi="http://www.w3.org/2001/XMLSchema-instance" xsi:schemaLocation="http://www.topografix.com/GPX/1/1 http://www.topografix.com/GPX/1/1/gpx.xsd" version="1.1" creator="VisuGPX - https://www.visugpx.com">
  <metadata>
    <name>rando du 17 mai 2014</name>
    <desc><![CDATA[rando au depart de la maison ,quelques arbres en travers vers le kms 18 oblige a du portage]]></desc>
  </metadata>
  <trk>
    <name><![CDATA[2014-05-17 13:43]]></name>
    <desc><![CDATA[<h1>OruxMaps</h1><br /><hr align="center" width="480" style="height: 2px; width: 517px"/><h2>Nom: 2014-05-17 13:43</h2><br /><p>Temps de départ: 05/17/2014 14:04</p><p>Temps d'arrivée: 05/17/2014 17:50</p><p>Distance: 43,5 km (03:45)</p><p>Temps déplacement: 02:58</p><p>Vitesse moyenne: 11,6 km/h</p><p>Vitesse moyenne: 14,6 km/h</p><p>Vitess Max.: 50,9 km/h</p><p>Altitude minimale: 277 m</p><p>Altitude maximale: 537 m</p><p>Vitesse d'élévation: 617,7 m/h</p><p>Vitesse de descente: -1182 m/h</p><p>Gain Altitude: 1329 m</p><p>Perte Altitude: -1343 m</p><p>Temps d'élévation: 02:09</p><p>Temps de descente: 01:08</p><hr align="center" width="480" style="height: 2px; width: 517px"/>]]></desc>
    <trkseg>
      <trkpt lat="46.15573" lon="3.45363">
        <ele>345.55</ele>
        <time>2014-05-17T12:04:47Z</time>
      </trkpt>
      <trkpt lat="46.15576" lon="3.45475">
        <ele>350.38</ele>
        <time>2014-05-17T12:05:00Z</time>
      </trkpt>
      <trkpt lat="46.15597" lon="3.45582">
        <ele>347.46</ele>
        <time>2014-05-17T12:05:10Z</time>
      </trkpt>
      <trkpt lat="46.1558" lon="3.45685">
        <ele>333.57</ele>
        <time>2014-05-17T12:05:22Z</time>
      </trkpt>
      <trkpt lat="46.15629" lon="3.45767">
        <ele>333.55</ele>
        <time>2014-05-17T12:05:32Z</time>
      </trkpt>
      <trkpt lat="46.15598" lon="3.45868">
        <ele>332.07</ele>
        <time>2014-05-17T12:05:47Z</time>
      </trkpt>
      <trkpt lat="46.15569" lon="3.45973">
        <ele>333.55</ele>
        <time>2014-05-17T12:06:02Z</time>
      </trkpt>
      <trkpt lat="46.15568" lon="3.46078">
        <ele>331.56</ele>
        <time>2014-05-17T12:06:12Z</time>
      </trkpt>
      <trkpt lat="46.15521" lon="3.46157">
        <ele>330.83</ele>
        <time>2014-05-17T12:06:28Z</time>
      </trkpt>
      <trkpt lat="46.15493" lon="3.4626">
        <ele>325.64</ele>
        <time>2014-05-17T12:06:41Z</time>
      </trkpt>
      <trkpt lat="46.15461" lon="3.46361">
        <ele>323.56</ele>
        <time>2014-05-17T12:06:54Z</time>
      </trkpt>
      <trkpt lat="46.15428" lon="3.46462">
        <ele>323.55</ele>
        <time>2014-05-17T12:07:07Z</time>
      </trkpt>
      <trkpt lat="46.15385" lon="3.46548">
        <ele>320.7</ele>
        <time>2014-05-17T12:07:19Z</time>
      </trkpt>
      <trkpt lat="46.15312" lon="3.46565">
        <ele>319.52</ele>
        <time>2014-05-17T12:07:36Z</time>
      </trkpt>
      <trkpt lat="46.15249" lon="3.46505">
        <ele>320.55</ele>
        <time>2014-05-17T12:07:52Z</time>
      </trkpt>
      <trkpt lat="46.15198" lon="3.46432">
        <ele>321.43</ele>
        <time>2014-05-17T12:08:09Z</time>
      </trkpt>
      <trkpt lat="46.15131" lon="3.46383">
        <ele>324.54</ele>
        <time>2014-05-17T12:08:24Z</time>
      </trkpt>
      <trkpt lat="46.15081" lon="3.46301">
        <ele>328.89</ele>
        <time>2014-05-17T12:08:42Z</time>
      </trkpt>
      <trkpt lat="46.15008" lon="3.46329">
        <ele>329.55</ele>
        <time>2014-05-17T12:09:00Z</time>
      </trkpt>
      <trkpt lat="46.14943" lon="3.4638">
        <ele>327.55</ele>
        <time>2014-05-17T12:09:18Z</time>
      </trkpt>
      <trkpt lat="46.14874" lon="3.46411">
        <ele>329.55</ele>
        <time>2014-05-17T12:09:36Z</time>
      </trkpt>
      <trkpt lat="46.14799" lon="3.46411">
        <ele>330.55</ele>
        <time>2014-05-17T12:09:58Z</time>
      </trkpt>
      <trkpt lat="46.14726" lon="3.46395">
        <ele>333.29</ele>
        <time>2014-05-17T12:10:18Z</time>
      </trkpt>
      <trkpt lat="46.14653" lon="3.46404">
        <ele>338.54</ele>
        <time>2014-05-17T12:10:38Z</time>
      </trkpt>
      <trkpt lat="46.14597" lon="3.46477">
        <ele>343.3</ele>
        <time>2014-05-17T12:11:03Z</time>
      </trkpt>
      <trkpt lat="46.14534" lon="3.46537">
        <ele>348.52</ele>
        <time>2014-05-17T12:11:19Z</time>
      </trkpt>
      <trkpt lat="46.14521" lon="3.46642">
        <ele>346.68</ele>
        <time>2014-05-17T12:11:39Z</time>
      </trkpt>
      <trkpt lat="46.14547" lon="3.46743">
        <ele>344.69</ele>
        <time>2014-05-17T12:11:54Z</time>
      </trkpt>
      <trkpt lat="46.14583" lon="3.46838">
        <ele>341.56</ele>
        <time>2014-05-17T12:12:10Z</time>
      </trkpt>
      <trkpt lat="46.14589" lon="3.46943">
        <ele>341.05</ele>
        <time>2014-05-17T12:12:32Z</time>
      </trkpt>
      <trkpt lat="46.14556" lon="3.47041">
        <ele>340.05</ele>
        <time>2014-05-17T12:12:45Z</time>
      </trkpt>
      <trkpt lat="46.1452" lon="3.47131">
        <ele>338.55</ele>
        <time>2014-05-17T12:13:07Z</time>
      </trkpt>
      <trkpt lat="46.14468" lon="3.47211">
        <ele>341.3</ele>
        <time>2014-05-17T12:13:32Z</time>
      </trkpt>
      <trkpt lat="46.14509" lon="3.47297">
        <ele>348.81</ele>
        <time>2014-05-17T12:13:55Z</time>
      </trkpt>
      <trkpt lat="46.14559" lon="3.47372">
        <ele>351.54</ele>
        <time>2014-05-17T12:14:09Z</time>
      </trkpt>
      <trkpt lat="46.14568" lon="3.47475">
        <ele>351.55</ele>
        <time>2014-05-17T12:14:32Z</time>
      </trkpt>
      <trkpt lat="46.14493" lon="3.47468">
        <ele>348.62</ele>
        <time>2014-05-17T12:14:50Z</time>
      </trkpt>
      <trkpt lat="46.14426" lon="3.47421">
        <ele>348.05</ele>
        <time>2014-05-17T12:15:05Z</time>
      </trkpt>
      <trkpt lat="46.14353" lon="3.47385">
        <ele>344.82</ele>
        <time>2014-05-17T12:15:17Z</time>
      </trkpt>
      <trkpt lat="46.14288" lon="3.47335">
        <ele>342.68</ele>
        <time>2014-05-17T12:15:29Z</time>
      </trkpt>
      <trkpt lat="46.14213" lon="3.47301">
        <ele>340.37</ele>
        <time>2014-05-17T12:15:37Z</time>
      </trkpt>
      <trkpt lat="46.14138" lon="3.47288">
        <ele>330.83</ele>
        <time>2014-05-17T12:15:45Z</time>
      </trkpt>
      <trkpt lat="46.14066" lon="3.47316">
        <ele>323.06</ele>
        <time>2014-05-17T12:15:52Z</time>
      </trkpt>
      <trkpt lat="46.14015" lon="3.47395">
        <ele>314.55</ele>
        <time>2014-05-17T12:16:00Z</time>
      </trkpt>
      <trkpt lat="46.13985" lon="3.47492">
        <ele>306.64</ele>
        <time>2014-05-17T12:16:12Z</time>
      </trkpt>
      <trkpt lat="46.1391" lon="3.47488">
        <ele>304.09</ele>
        <time>2014-05-17T12:16:31Z</time>
      </trkpt>
      <trkpt lat="46.13839" lon="3.4746">
        <ele>303.55</ele>
        <time>2014-05-17T12:16:43Z</time>
      </trkpt>
      <trkpt lat="46.13785" lon="3.47383">
        <ele>301.56</ele>
        <time>2014-05-17T12:16:58Z</time>
      </trkpt>
      <trkpt lat="46.13712" lon="3.47383">
        <ele>299.19</ele>
        <time>2014-05-17T12:17:19Z</time>
      </trkpt>
      <trkpt lat="46.13661" lon="3.47468">
        <ele>295.56</ele>
        <time>2014-05-17T12:17:32Z</time>
      </trkpt>
      <trkpt lat="46.13652" lon="3.47574">
        <ele>296.42</ele>
        <time>2014-05-17T12:17:47Z</time>
      </trkpt>
      <trkpt lat="46.13672" lon="3.47677">
        <ele>297.49</ele>
        <time>2014-05-17T12:18:00Z</time>
      </trkpt>
      <trkpt lat="46.13607" lon="3.47724">
        <ele>298.55</ele>
        <time>2014-05-17T12:18:21Z</time>
      </trkpt>
      <trkpt lat="46.13538" lon="3.47756">
        <ele>300.05</ele>
        <time>2014-05-17T12:18:52Z</time>
      </trkpt>
      <trkpt lat="46.13472" lon="3.47801">
        <ele>302.05</ele>
        <time>2014-05-17T12:19:26Z</time>
      </trkpt>
      <trkpt lat="46.13415" lon="3.47863">
        <ele>307.05</ele>
        <time>2014-05-17T12:20:05Z</time>
      </trkpt>
      <trkpt lat="46.13362" lon="3.47936">
        <ele>316.43</ele>
        <time>2014-05-17T12:20:49Z</time>
      </trkpt>
      <trkpt lat="46.13297" lon="3.47981">
        <ele>321.55</ele>
        <time>2014-05-17T12:21:21Z</time>
      </trkpt>
      <trkpt lat="46.13225" lon="3.48001">
        <ele>326.3</ele>
        <time>2014-05-17T12:21:56Z</time>
      </trkpt>
      <trkpt lat="46.13155" lon="3.48031">
        <ele>330.55</ele>
        <time>2014-05-17T12:22:29Z</time>
      </trkpt>
      <trkpt lat="46.13081" lon="3.48043">
        <ele>334.49</ele>
        <time>2014-05-17T12:22:59Z</time>
      </trkpt>
      <trkpt lat="46.13059" lon="3.47938">
        <ele>341.27</ele>
        <time>2014-05-17T12:23:24Z</time>
      </trkpt>
      <trkpt lat="46.13042" lon="3.47833">
        <ele>355.61</ele>
        <time>2014-05-17T12:23:38Z</time>
      </trkpt>
      <trkpt lat="46.12969" lon="3.47833">
        <ele>362.54</ele>
        <time>2014-05-17T12:24:04Z</time>
      </trkpt>
      <trkpt lat="46.12897" lon="3.47842">
        <ele>364.49</ele>
        <time>2014-05-17T12:24:32Z</time>
      </trkpt>
      <trkpt lat="46.12824" lon="3.47857">
        <ele>364.55</ele>
        <time>2014-05-17T12:25:00Z</time>
      </trkpt>
      <trkpt lat="46.12749" lon="3.47867">
        <ele>365.49</ele>
        <time>2014-05-17T12:25:35Z</time>
      </trkpt>
      <trkpt lat="46.12675" lon="3.47874">
        <ele>371.02</ele>
        <time>2014-05-17T12:26:17Z</time>
      </trkpt>
      <trkpt lat="46.12607" lon="3.47906">
        <ele>381.02</ele>
        <time>2014-05-17T12:27:02Z</time>
      </trkpt>
      <trkpt lat="46.12584" lon="3.48005">
        <ele>390.3</ele>
        <time>2014-05-17T12:27:51Z</time>
      </trkpt>
      <trkpt lat="46.12553" lon="3.48101">
        <ele>397.52</ele>
        <time>2014-05-17T12:28:40Z</time>
      </trkpt>
      <trkpt lat="46.12552" lon="3.48207">
        <ele>406.52</ele>
        <time>2014-05-17T12:29:20Z</time>
      </trkpt>
      <trkpt lat="46.12526" lon="3.48307">
        <ele>417.02</ele>
        <time>2014-05-17T12:29:58Z</time>
      </trkpt>
      <trkpt lat="46.12498" lon="3.48404">
        <ele>427.48</ele>
        <time>2014-05-17T12:30:35Z</time>
      </trkpt>
      <trkpt lat="46.12474" lon="3.48503">
        <ele>437.42</ele>
        <time>2014-05-17T12:31:11Z</time>
      </trkpt>
      <trkpt lat="46.12437" lon="3.48595">
        <ele>445.29</ele>
        <time>2014-05-17T12:31:46Z</time>
      </trkpt>
      <trkpt lat="46.12376" lon="3.48653">
        <ele>452.29</ele>
        <time>2014-05-17T12:32:21Z</time>
      </trkpt>
      <trkpt lat="46.1232" lon="3.48719">
        <ele>456.54</ele>
        <time>2014-05-17T12:32:48Z</time>
      </trkpt>
      <trkpt lat="46.12264" lon="3.4879">
        <ele>459.54</ele>
        <time>2014-05-17T12:33:08Z</time>
      </trkpt>
      <trkpt lat="46.12215" lon="3.48872">
        <ele>463.43</ele>
        <time>2014-05-17T12:33:31Z</time>
      </trkpt>
      <trkpt lat="46.12181" lon="3.48973">
        <ele>470.45</ele>
        <time>2014-05-17T12:33:49Z</time>
      </trkpt>
      <trkpt lat="46.12168" lon="3.49076">
        <ele>470.52</ele>
        <time>2014-05-17T12:34:05Z</time>
      </trkpt>
      <trkpt lat="46.12129" lon="3.49164">
        <ele>468.59</ele>
        <time>2014-05-17T12:34:19Z</time>
      </trkpt>
      <trkpt lat="46.12069" lon="3.49232">
        <ele>467.62</ele>
        <time>2014-05-17T12:34:34Z</time>
      </trkpt>
      <trkpt lat="46.1201" lon="3.49297">
        <ele>469.43</ele>
        <time>2014-05-17T12:34:49Z</time>
      </trkpt>
      <trkpt lat="46.11946" lon="3.49346">
        <ele>471.43</ele>
        <time>2014-05-17T12:35:05Z</time>
      </trkpt>
      <trkpt lat="46.11902" lon="3.4926">
        <ele>471.55</ele>
        <time>2014-05-17T12:35:26Z</time>
      </trkpt>
      <trkpt lat="46.11873" lon="3.49161">
        <ele>472.49</ele>
        <time>2014-05-17T12:35:41Z</time>
      </trkpt>
      <trkpt lat="46.11848" lon="3.49063">
        <ele>472.55</ele>
        <time>2014-05-17T12:35:56Z</time>
      </trkpt>
      <trkpt lat="46.11838" lon="3.48955">
        <ele>471.8</ele>
        <time>2014-05-17T12:36:09Z</time>
      </trkpt>
      <trkpt lat="46.11808" lon="3.48859">
        <ele>470.58</ele>
        <time>2014-05-17T12:36:22Z</time>
      </trkpt>
      <trkpt lat="46.11784" lon="3.48756">
        <ele>469.12</ele>
        <time>2014-05-17T12:36:31Z</time>
      </trkpt>
      <trkpt lat="46.11755" lon="3.48657">
        <ele>459.98</ele>
        <time>2014-05-17T12:36:45Z</time>
      </trkpt>
      <trkpt lat="46.11752" lon="3.48552">
        <ele>454.22</ele>
        <time>2014-05-17T12:36:56Z</time>
      </trkpt>
      <trkpt lat="46.1173" lon="3.48449">
        <ele>443.7</ele>
        <time>2014-05-17T12:37:09Z</time>
      </trkpt>
      <trkpt lat="46.117" lon="3.48344">
        <ele>435.14</ele>
        <time>2014-05-17T12:37:21Z</time>
      </trkpt>
      <trkpt lat="46.11717" lon="3.48237">
        <ele>432.69</ele>
        <time>2014-05-17T12:37:31Z</time>
      </trkpt>
      <trkpt lat="46.11722" lon="3.48127">
        <ele>426.14</ele>
        <time>2014-05-17T12:37:39Z</time>
      </trkpt>
      <trkpt lat="46.11696" lon="3.48026">
        <ele>412.01</ele>
        <time>2014-05-17T12:37:48Z</time>
      </trkpt>
      <trkpt lat="46.11625" lon="3.47979">
        <ele>393.57</ele>
        <time>2014-05-17T12:38:00Z</time>
      </trkpt>
      <trkpt lat="46.11562" lon="3.47923">
        <ele>377.75</ele>
        <time>2014-05-17T12:38:15Z</time>
      </trkpt>
      <trkpt lat="46.11567" lon="3.47818">
        <ele>375.83</ele>
        <time>2014-05-17T12:38:25Z</time>
      </trkpt>
      <trkpt lat="46.1161" lon="3.4773">
        <ele>370.14</ele>
        <time>2014-05-17T12:38:36Z</time>
      </trkpt>
      <trkpt lat="46.11656" lon="3.4764">
        <ele>365.7</ele>
        <time>2014-05-17T12:38:47Z</time>
      </trkpt>
      <trkpt lat="46.11691" lon="3.47548">
        <ele>356.68</ele>
        <time>2014-05-17T12:39:03Z</time>
      </trkpt>
      <trkpt lat="46.11641" lon="3.47471">
        <ele>305.55</ele>
        <time>2014-05-17T12:39:36Z</time>
      </trkpt>
      <trkpt lat="46.11576" lon="3.47417">
        <ele>306.05</ele>
        <time>2014-05-17T12:40:25Z</time>
      </trkpt>
      <trkpt lat="46.11548" lon="3.47524">
        <ele>313.04</ele>
        <time>2014-05-17T12:41:19Z</time>
      </trkpt>
      <trkpt lat="46.11492" lon="3.47606">
        <ele>318.05</ele>
        <time>2014-05-17T12:42:05Z</time>
      </trkpt>
      <trkpt lat="46.11441" lon="3.47681">
        <ele>324.3</ele>
        <time>2014-05-17T12:42:54Z</time>
      </trkpt>
      <trkpt lat="46.11393" lon="3.47758">
        <ele>329.43</ele>
        <time>2014-05-17T12:43:36Z</time>
      </trkpt>
      <trkpt lat="46.1141" lon="3.47655">
        <ele>339.55</ele>
        <time>2014-05-17T12:45:26Z</time>
      </trkpt>
      <trkpt lat="46.11387" lon="3.47556">
        <ele>354.55</ele>
        <time>2014-05-17T12:45:49Z</time>
      </trkpt>
      <trkpt lat="46.11306" lon="3.47554">
        <ele>355.52</ele>
        <time>2014-05-17T12:46:17Z</time>
      </trkpt>
      <trkpt lat="46.11235" lon="3.47533">
        <ele>359.05</ele>
        <time>2014-05-17T12:46:41Z</time>
      </trkpt>
      <trkpt lat="46.11201" lon="3.4764">
        <ele>368.05</ele>
        <time>2014-05-17T12:47:57Z</time>
      </trkpt>
      <trkpt lat="46.11151" lon="3.47715">
        <ele>380.02</ele>
        <time>2014-05-17T12:48:48Z</time>
      </trkpt>
      <trkpt lat="46.1108" lon="3.47743">
        <ele>392.49</ele>
        <time>2014-05-17T12:49:43Z</time>
      </trkpt>
      <trkpt lat="46.11007" lon="3.47741">
        <ele>399.43</ele>
        <time>2014-05-17T12:50:23Z</time>
      </trkpt>
      <trkpt lat="46.10936" lon="3.4776">
        <ele>401.55</ele>
        <time>2014-05-17T12:51:03Z</time>
      </trkpt>
      <trkpt lat="46.10866" lon="3.47792">
        <ele>405.55</ele>
        <time>2014-05-17T12:51:39Z</time>
      </trkpt>
      <trkpt lat="46.10793" lon="3.47807">
        <ele>413.89</ele>
        <time>2014-05-17T12:52:12Z</time>
      </trkpt>
      <trkpt lat="46.10719" lon="3.47775">
        <ele>426.34</ele>
        <time>2014-05-17T12:52:35Z</time>
      </trkpt>
      <trkpt lat="46.10652" lon="3.47812">
        <ele>425.07</ele>
        <time>2014-05-17T12:52:45Z</time>
      </trkpt>
      <trkpt lat="46.10599" lon="3.47885">
        <ele>423.55</ele>
        <time>2014-05-17T12:53:16Z</time>
      </trkpt>
      <trkpt lat="46.1057" lon="3.47986">
        <ele>423.55</ele>
        <time>2014-05-17T12:53:36Z</time>
      </trkpt>
      <trkpt lat="46.1056" lon="3.48089">
        <ele>424.55</ele>
        <time>2014-05-17T12:53:59Z</time>
      </trkpt>
      <trkpt lat="46.10508" lon="3.48161">
        <ele>437.29</ele>
        <time>2014-05-17T12:54:21Z</time>
      </trkpt>
      <trkpt lat="46.10504" lon="3.48267">
        <ele>442.81</ele>
        <time>2014-05-17T12:54:41Z</time>
      </trkpt>
      <trkpt lat="46.1052" lon="3.48372">
        <ele>429.06</ele>
        <time>2014-05-17T12:54:52Z</time>
      </trkpt>
      <trkpt lat="46.10562" lon="3.48462">
        <ele>421.87</ele>
        <time>2014-05-17T12:55:11Z</time>
      </trkpt>
      <trkpt lat="46.10599" lon="3.48563">
        <ele>399.57</ele>
        <time>2014-05-17T12:55:28Z</time>
      </trkpt>
      <trkpt lat="46.10615" lon="3.4867">
        <ele>399.55</ele>
        <time>2014-05-17T12:56:03Z</time>
      </trkpt>
      <trkpt lat="46.10545" lon="3.48649">
        <ele>407.54</ele>
        <time>2014-05-17T12:59:59Z</time>
      </trkpt>
      <trkpt lat="46.10509" lon="3.48556">
        <ele>409.55</ele>
        <time>2014-05-17T13:00:51Z</time>
      </trkpt>
      <trkpt lat="46.10438" lon="3.48522">
        <ele>414.02</ele>
        <time>2014-05-17T13:01:21Z</time>
      </trkpt>
      <trkpt lat="46.10366" lon="3.485">
        <ele>416.8</ele>
        <time>2014-05-17T13:01:47Z</time>
      </trkpt>
      <trkpt lat="46.10302" lon="3.48453">
        <ele>408.09</ele>
        <time>2014-05-17T13:02:24Z</time>
      </trkpt>
      <trkpt lat="46.10318" lon="3.48556">
        <ele>374.62</ele>
        <time>2014-05-17T13:03:48Z</time>
      </trkpt>
      <trkpt lat="46.10362" lon="3.4864">
        <ele>367.81</ele>
        <time>2014-05-17T13:04:17Z</time>
      </trkpt>
      <trkpt lat="46.10434" lon="3.48653">
        <ele>365.55</ele>
        <time>2014-05-17T13:04:51Z</time>
      </trkpt>
      <trkpt lat="46.10418" lon="3.48754">
        <ele>369.3</ele>
        <time>2014-05-17T13:06:05Z</time>
      </trkpt>
      <trkpt lat="46.10365" lon="3.48825">
        <ele>376.43</ele>
        <time>2014-05-17T13:07:00Z</time>
      </trkpt>
      <trkpt lat="46.1032" lon="3.48906">
        <ele>390.29</ele>
        <time>2014-05-17T13:07:51Z</time>
      </trkpt>
      <trkpt lat="46.10252" lon="3.48943">
        <ele>401.55</ele>
        <time>2014-05-17T13:09:03Z</time>
      </trkpt>
      <trkpt lat="46.10178" lon="3.48938">
        <ele>410.54</ele>
        <time>2014-05-17T13:09:51Z</time>
      </trkpt>
      <trkpt lat="46.10111" lon="3.48981">
        <ele>418.52</ele>
        <time>2014-05-17T13:10:35Z</time>
      </trkpt>
      <trkpt lat="46.10055" lon="3.4905">
        <ele>434.52</ele>
        <time>2014-05-17T13:12:03Z</time>
      </trkpt>
      <trkpt lat="46.10031" lon="3.49149">
        <ele>449.02</ele>
        <time>2014-05-17T13:13:03Z</time>
      </trkpt>
      <trkpt lat="46.10041" lon="3.49252">
        <ele>457.05</ele>
        <time>2014-05-17T13:13:52Z</time>
      </trkpt>
      <trkpt lat="46.09987" lon="3.49324">
        <ele>461.55</ele>
        <time>2014-05-17T13:14:31Z</time>
      </trkpt>
      <trkpt lat="46.0992" lon="3.4938">
        <ele>469.02</ele>
        <time>2014-05-17T13:14:56Z</time>
      </trkpt>
      <trkpt lat="46.09931" lon="3.49496">
        <ele>472.52</ele>
        <time>2014-05-17T13:15:28Z</time>
      </trkpt>
      <trkpt lat="46.09901" lon="3.49593">
        <ele>474.54</ele>
        <time>2014-05-17T13:16:01Z</time>
      </trkpt>
      <trkpt lat="46.09864" lon="3.49687">
        <ele>477.52</ele>
        <time>2014-05-17T13:16:32Z</time>
      </trkpt>
      <trkpt lat="46.0983" lon="3.49779">
        <ele>483.04</ele>
        <time>2014-05-17T13:17:06Z</time>
      </trkpt>
      <trkpt lat="46.09767" lon="3.49831">
        <ele>488.3</ele>
        <time>2014-05-17T13:17:46Z</time>
      </trkpt>
      <trkpt lat="46.09698" lon="3.49869">
        <ele>492.05</ele>
        <time>2014-05-17T13:18:18Z</time>
      </trkpt>
      <trkpt lat="46.09683" lon="3.49972">
        <ele>493.55</ele>
        <time>2014-05-17T13:18:41Z</time>
      </trkpt>
      <trkpt lat="46.09657" lon="3.50073">
        <ele>494.55</ele>
        <time>2014-05-17T13:19:10Z</time>
      </trkpt>
      <trkpt lat="46.09684" lon="3.5017">
        <ele>495.55</ele>
        <time>2014-05-17T13:19:38Z</time>
      </trkpt>
      <trkpt lat="46.09718" lon="3.50264">
        <ele>494.55</ele>
        <time>2014-05-17T13:20:04Z</time>
      </trkpt>
      <trkpt lat="46.09773" lon="3.50333">
        <ele>492.56</ele>
        <time>2014-05-17T13:20:34Z</time>
      </trkpt>
      <trkpt lat="46.09791" lon="3.50442">
        <ele>487.27</ele>
        <time>2014-05-17T13:21:06Z</time>
      </trkpt>
      <trkpt lat="46.09833" lon="3.5053">
        <ele>484.52</ele>
        <time>2014-05-17T13:21:20Z</time>
      </trkpt>
      <trkpt lat="46.09846" lon="3.50638">
        <ele>491.02</ele>
        <time>2014-05-17T13:21:36Z</time>
      </trkpt>
      <trkpt lat="46.09907" lon="3.50696">
        <ele>483.28</ele>
        <time>2014-05-17T13:21:50Z</time>
      </trkpt>
      <trkpt lat="46.09964" lon="3.50771">
        <ele>455.58</ele>
        <time>2014-05-17T13:23:04Z</time>
      </trkpt>
      <trkpt lat="46.09922" lon="3.50857">
        <ele>402.71</ele>
        <time>2014-05-17T13:25:05Z</time>
      </trkpt>
      <trkpt lat="46.0996" lon="3.50947">
        <ele>407.58</ele>
        <time>2014-05-17T13:26:18Z</time>
      </trkpt>
      <trkpt lat="46.10029" lon="3.50981">
        <ele>405.55</ele>
        <time>2014-05-17T13:26:41Z</time>
      </trkpt>
      <trkpt lat="46.10093" lon="3.5103">
        <ele>404.55</ele>
        <time>2014-05-17T13:27:00Z</time>
      </trkpt>
      <trkpt lat="46.10099" lon="3.51138">
        <ele>396.81</ele>
        <time>2014-05-17T13:27:23Z</time>
      </trkpt>
      <trkpt lat="46.1006" lon="3.51228">
        <ele>387.62</ele>
        <time>2014-05-17T13:27:41Z</time>
      </trkpt>
      <trkpt lat="46.1013" lon="3.5126">
        <ele>373.64</ele>
        <time>2014-05-17T13:28:13Z</time>
      </trkpt>
      <trkpt lat="46.10201" lon="3.51217">
        <ele>366.83</ele>
        <time>2014-05-17T13:28:24Z</time>
      </trkpt>
      <trkpt lat="46.10269" lon="3.51181">
        <ele>349.82</ele>
        <time>2014-05-17T13:28:51Z</time>
      </trkpt>
      <trkpt lat="46.10242" lon="3.51286">
        <ele>343.57</ele>
        <time>2014-05-17T13:29:34Z</time>
      </trkpt>
      <trkpt lat="46.10214" lon="3.51389">
        <ele>341.55</ele>
        <time>2014-05-17T13:30:08Z</time>
      </trkpt>
      <trkpt lat="46.10142" lon="3.51404">
        <ele>343.05</ele>
        <time>2014-05-17T13:30:48Z</time>
      </trkpt>
      <trkpt lat="46.10193" lon="3.51479">
        <ele>346.55</ele>
        <time>2014-05-17T13:31:37Z</time>
      </trkpt>
      <trkpt lat="46.10203" lon="3.51582">
        <ele>349.55</ele>
        <time>2014-05-17T13:32:36Z</time>
      </trkpt>
      <trkpt lat="46.10233" lon="3.51676">
        <ele>352.55</ele>
        <time>2014-05-17T13:33:48Z</time>
      </trkpt>
      <trkpt lat="46.10306" lon="3.51685">
        <ele>356.55</ele>
        <time>2014-05-17T13:34:28Z</time>
      </trkpt>
      <trkpt lat="46.10344" lon="3.51595">
        <ele>361.05</ele>
        <time>2014-05-17T13:34:56Z</time>
      </trkpt>
      <trkpt lat="46.10371" lon="3.51498">
        <ele>365.54</ele>
        <time>2014-05-17T13:35:28Z</time>
      </trkpt>
      <trkpt lat="46.10353" lon="3.51601">
        <ele>379.49</ele>
        <time>2014-05-17T13:36:51Z</time>
      </trkpt>
      <trkpt lat="46.10385" lon="3.51698">
        <ele>384.43</ele>
        <time>2014-05-17T13:37:30Z</time>
      </trkpt>
      <trkpt lat="46.10419" lon="3.5179">
        <ele>389.49</ele>
        <time>2014-05-17T13:38:05Z</time>
      </trkpt>
      <trkpt lat="46.10463" lon="3.51874">
        <ele>394.52</ele>
        <time>2014-05-17T13:38:38Z</time>
      </trkpt>
      <trkpt lat="46.10518" lon="3.51942">
        <ele>404.41</ele>
        <time>2014-05-17T13:39:17Z</time>
      </trkpt>
      <trkpt lat="46.105" lon="3.52045">
        <ele>417.26</ele>
        <time>2014-05-17T13:39:39Z</time>
      </trkpt>
      <trkpt lat="46.10481" lon="3.52146">
        <ele>437.48</ele>
        <time>2014-05-17T13:39:57Z</time>
      </trkpt>
      <trkpt lat="46.10463" lon="3.52247">
        <ele>439.55</ele>
        <time>2014-05-17T13:40:14Z</time>
      </trkpt>
      <trkpt lat="46.10443" lon="3.52348">
        <ele>442.52</ele>
        <time>2014-05-17T13:40:32Z</time>
      </trkpt>
      <trkpt lat="46.10427" lon="3.52449">
        <ele>445.43</ele>
        <time>2014-05-17T13:40:49Z</time>
      </trkpt>
      <trkpt lat="46.1041" lon="3.52554">
        <ele>445.55</ele>
        <time>2014-05-17T13:41:06Z</time>
      </trkpt>
      <trkpt lat="46.10394" lon="3.52657">
        <ele>447.54</ele>
        <time>2014-05-17T13:41:17Z</time>
      </trkpt>
      <trkpt lat="46.10357" lon="3.52747">
        <ele>447.55</ele>
        <time>2014-05-17T13:41:28Z</time>
      </trkpt>
      <trkpt lat="46.10314" lon="3.52831">
        <ele>448.55</ele>
        <time>2014-05-17T13:41:41Z</time>
      </trkpt>
      <trkpt lat="46.10268" lon="3.52912">
        <ele>447.55</ele>
        <time>2014-05-17T13:41:59Z</time>
      </trkpt>
      <trkpt lat="46.10218" lon="3.52989">
        <ele>448.3</ele>
        <time>2014-05-17T13:42:21Z</time>
      </trkpt>
      <trkpt lat="46.10166" lon="3.53065">
        <ele>450.49</ele>
        <time>2014-05-17T13:42:43Z</time>
      </trkpt>
      <trkpt lat="46.1011" lon="3.53135">
        <ele>453.49</ele>
        <time>2014-05-17T13:43:08Z</time>
      </trkpt>
      <trkpt lat="46.10064" lon="3.53217">
        <ele>457.49</ele>
        <time>2014-05-17T13:43:35Z</time>
      </trkpt>
      <trkpt lat="46.09998" lon="3.53262">
        <ele>463.42</ele>
        <time>2014-05-17T13:44:04Z</time>
      </trkpt>
      <trkpt lat="46.0995" lon="3.53343">
        <ele>475.21</ele>
        <time>2014-05-17T13:44:27Z</time>
      </trkpt>
      <trkpt lat="46.09898" lon="3.53425">
        <ele>481.42</ele>
        <time>2014-05-17T13:44:41Z</time>
      </trkpt>
      <trkpt lat="46.09825" lon="3.53425">
        <ele>483.52</ele>
        <time>2014-05-17T13:44:51Z</time>
      </trkpt>
      <trkpt lat="46.09752" lon="3.53468">
        <ele>486.29</ele>
        <time>2014-05-17T13:45:01Z</time>
      </trkpt>
      <trkpt lat="46.09688" lon="3.53545">
        <ele>482.76</ele>
        <time>2014-05-17T13:45:08Z</time>
      </trkpt>
      <trkpt lat="46.09626" lon="3.53599">
        <ele>473.4</ele>
        <time>2014-05-17T13:45:18Z</time>
      </trkpt>
      <trkpt lat="46.09558" lon="3.53644">
        <ele>453.67</ele>
        <time>2014-05-17T13:45:51Z</time>
      </trkpt>
      <trkpt lat="46.0951" lon="3.53732">
        <ele>450.55</ele>
        <time>2014-05-17T13:46:03Z</time>
      </trkpt>
      <trkpt lat="46.09452" lon="3.53796">
        <ele>450.55</ele>
        <time>2014-05-17T13:46:13Z</time>
      </trkpt>
      <trkpt lat="46.09376" lon="3.53796">
        <ele>451.52</ele>
        <time>2014-05-17T13:46:25Z</time>
      </trkpt>
      <trkpt lat="46.09303" lon="3.53783">
        <ele>449.09</ele>
        <time>2014-05-17T13:46:35Z</time>
      </trkpt>
      <trkpt lat="46.09226" lon="3.53762">
        <ele>442.48</ele>
        <time>2014-05-17T13:46:47Z</time>
      </trkpt>
      <trkpt lat="46.0915" lon="3.5374">
        <ele>434.59</ele>
        <time>2014-05-17T13:47:02Z</time>
      </trkpt>
      <trkpt lat="46.09076" lon="3.53764">
        <ele>428.55</ele>
        <time>2014-05-17T13:47:42Z</time>
      </trkpt>
      <trkpt lat="46.09005" lon="3.53805">
        <ele>412.1</ele>
        <time>2014-05-17T13:48:28Z</time>
      </trkpt>
      <trkpt lat="46.08933" lon="3.53796">
        <ele>384.62</ele>
        <time>2014-05-17T13:52:17Z</time>
      </trkpt>
      <trkpt lat="46.08868" lon="3.53745">
        <ele>378.56</ele>
        <time>2014-05-17T13:53:10Z</time>
      </trkpt>
      <trkpt lat="46.08795" lon="3.53753">
        <ele>371.69</ele>
        <time>2014-05-17T13:53:39Z</time>
      </trkpt>
      <trkpt lat="46.08722" lon="3.53753">
        <ele>363.84</ele>
        <time>2014-05-17T13:54:07Z</time>
      </trkpt>
      <trkpt lat="46.08655" lon="3.53713">
        <ele>355.82</ele>
        <time>2014-05-17T13:54:37Z</time>
      </trkpt>
      <trkpt lat="46.08596" lon="3.5365">
        <ele>349.81</ele>
        <time>2014-05-17T13:55:02Z</time>
      </trkpt>
      <trkpt lat="46.08652" lon="3.53582">
        <ele>346.62</ele>
        <time>2014-05-17T13:55:42Z</time>
      </trkpt>
      <trkpt lat="46.08699" lon="3.53502">
        <ele>348.55</ele>
        <time>2014-05-17T13:56:27Z</time>
      </trkpt>
      <trkpt lat="46.08686" lon="3.53399">
        <ele>358.29</ele>
        <time>2014-05-17T13:57:21Z</time>
      </trkpt>
      <trkpt lat="46.08676" lon="3.53296">
        <ele>369.55</ele>
        <time>2014-05-17T13:58:25Z</time>
      </trkpt>
      <trkpt lat="46.08639" lon="3.53206">
        <ele>371.55</ele>
        <time>2014-05-17T13:59:08Z</time>
      </trkpt>
      <trkpt lat="46.08584" lon="3.53135">
        <ele>375.42</ele>
        <time>2014-05-17T13:59:50Z</time>
      </trkpt>
      <trkpt lat="46.08536" lon="3.53058">
        <ele>382.55</ele>
        <time>2014-05-17T14:00:28Z</time>
      </trkpt>
      <trkpt lat="46.08488" lon="3.52981">
        <ele>387.49</ele>
        <time>2014-05-17T14:01:04Z</time>
      </trkpt>
      <trkpt lat="46.08443" lon="3.52899">
        <ele>392.05</ele>
        <time>2014-05-17T14:01:41Z</time>
      </trkpt>
      <trkpt lat="46.08371" lon="3.52889">
        <ele>398.41</ele>
        <time>2014-05-17T14:02:31Z</time>
      </trkpt>
      <trkpt lat="46.08299" lon="3.52895">
        <ele>415.42</ele>
        <time>2014-05-17T14:03:31Z</time>
      </trkpt>
      <trkpt lat="46.08232" lon="3.52852">
        <ele>424.49</ele>
        <time>2014-05-17T14:04:24Z</time>
      </trkpt>
      <trkpt lat="46.08169" lon="3.52801">
        <ele>430.43</ele>
        <time>2014-05-17T14:05:01Z</time>
      </trkpt>
      <trkpt lat="46.08108" lon="3.52743">
        <ele>435.52</ele>
        <time>2014-05-17T14:05:28Z</time>
      </trkpt>
      <trkpt lat="46.08047" lon="3.52685">
        <ele>444.41</ele>
        <time>2014-05-17T14:06:01Z</time>
      </trkpt>
      <trkpt lat="46.07985" lon="3.52631">
        <ele>455.42</ele>
        <time>2014-05-17T14:06:43Z</time>
      </trkpt>
      <trkpt lat="46.07913" lon="3.52614">
        <ele>467.89</ele>
        <time>2014-05-17T14:07:42Z</time>
      </trkpt>
      <trkpt lat="46.07839" lon="3.52612">
        <ele>478.99</ele>
        <time>2014-05-17T14:08:12Z</time>
      </trkpt>
      <trkpt lat="46.078" lon="3.52706">
        <ele>495.5</ele>
        <time>2014-05-17T14:08:23Z</time>
      </trkpt>
      <trkpt lat="46.07807" lon="3.52816">
        <ele>510.25</ele>
        <time>2014-05-17T14:08:36Z</time>
      </trkpt>
      <trkpt lat="46.07837" lon="3.52916">
        <ele>519.87</ele>
        <time>2014-05-17T14:08:54Z</time>
      </trkpt>
      <trkpt lat="46.0787" lon="3.53013">
        <ele>514.44</ele>
        <time>2014-05-17T14:09:13Z</time>
      </trkpt>
      <trkpt lat="46.07899" lon="3.53112">
        <ele>505.58</ele>
        <time>2014-05-17T14:09:28Z</time>
      </trkpt>
      <trkpt lat="46.0783" lon="3.53148">
        <ele>498.83</ele>
        <time>2014-05-17T14:09:44Z</time>
      </trkpt>
      <trkpt lat="46.07759" lon="3.53176">
        <ele>492.35</ele>
        <time>2014-05-17T14:09:57Z</time>
      </trkpt>
      <trkpt lat="46.07692" lon="3.53213">
        <ele>484.45</ele>
        <time>2014-05-17T14:10:09Z</time>
      </trkpt>
      <trkpt lat="46.07642" lon="3.53294">
        <ele>471.23</ele>
        <time>2014-05-17T14:10:19Z</time>
      </trkpt>
      <trkpt lat="46.07575" lon="3.53337">
        <ele>470.87</ele>
        <time>2014-05-17T14:10:33Z</time>
      </trkpt>
      <trkpt lat="46.07502" lon="3.53328">
        <ele>473.54</ele>
        <time>2014-05-17T14:10:49Z</time>
      </trkpt>
      <trkpt lat="46.07474" lon="3.53429">
        <ele>469.13</ele>
        <time>2014-05-17T14:11:05Z</time>
      </trkpt>
      <trkpt lat="46.07508" lon="3.53526">
        <ele>439.09</ele>
        <time>2014-05-17T14:11:15Z</time>
      </trkpt>
      <trkpt lat="46.07552" lon="3.53612">
        <ele>429.27</ele>
        <time>2014-05-17T14:11:25Z</time>
      </trkpt>
      <trkpt lat="46.07591" lon="3.537">
        <ele>426.68</ele>
        <time>2014-05-17T14:11:45Z</time>
      </trkpt>
      <trkpt lat="46.07636" lon="3.5379">
        <ele>420.29</ele>
        <time>2014-05-17T14:11:56Z</time>
      </trkpt>
      <trkpt lat="46.07621" lon="3.53895">
        <ele>420.8</ele>
        <time>2014-05-17T14:12:14Z</time>
      </trkpt>
      <trkpt lat="46.0756" lon="3.53957">
        <ele>412.43</ele>
        <time>2014-05-17T14:12:25Z</time>
      </trkpt>
      <trkpt lat="46.07582" lon="3.54058">
        <ele>390.49</ele>
        <time>2014-05-17T14:12:52Z</time>
      </trkpt>
      <trkpt lat="46.07519" lon="3.54114">
        <ele>381.55</ele>
        <time>2014-05-17T14:13:35Z</time>
      </trkpt>
      <trkpt lat="46.07456" lon="3.54176">
        <ele>377.12</ele>
        <time>2014-05-17T14:14:00Z</time>
      </trkpt>
      <trkpt lat="46.0741" lon="3.54258">
        <ele>371.69</ele>
        <time>2014-05-17T14:14:18Z</time>
      </trkpt>
      <trkpt lat="46.07382" lon="3.54356">
        <ele>366.07</ele>
        <time>2014-05-17T14:14:38Z</time>
      </trkpt>
      <trkpt lat="46.07366" lon="3.54461">
        <ele>360.02</ele>
        <time>2014-05-17T14:14:54Z</time>
      </trkpt>
      <trkpt lat="46.07353" lon="3.54564">
        <ele>353.71</ele>
        <time>2014-05-17T14:15:09Z</time>
      </trkpt>
      <trkpt lat="46.07339" lon="3.54667">
        <ele>348.86</ele>
        <time>2014-05-17T14:15:23Z</time>
      </trkpt>
      <trkpt lat="46.07317" lon="3.5477">
        <ele>348.07</ele>
        <time>2014-05-17T14:15:36Z</time>
      </trkpt>
      <trkpt lat="46.07296" lon="3.54871">
        <ele>346.55</ele>
        <time>2014-05-17T14:15:57Z</time>
      </trkpt>
      <trkpt lat="46.07265" lon="3.5497">
        <ele>348.52</ele>
        <time>2014-05-17T14:16:30Z</time>
      </trkpt>
      <trkpt lat="46.07206" lon="3.55045">
        <ele>351.55</ele>
        <time>2014-05-17T14:17:30Z</time>
      </trkpt>
      <trkpt lat="46.07142" lon="3.54987">
        <ele>359.04</ele>
        <time>2014-05-17T14:18:12Z</time>
      </trkpt>
      <trkpt lat="46.0709" lon="3.54916">
        <ele>368.02</ele>
        <time>2014-05-17T14:18:56Z</time>
      </trkpt>
      <trkpt lat="46.07031" lon="3.54856">
        <ele>376.29</ele>
        <time>2014-05-17T14:19:33Z</time>
      </trkpt>
      <trkpt lat="46.06959" lon="3.5485">
        <ele>382.3</ele>
        <time>2014-05-17T14:20:10Z</time>
      </trkpt>
      <trkpt lat="46.06886" lon="3.54837">
        <ele>390.49</ele>
        <time>2014-05-17T14:20:55Z</time>
      </trkpt>
      <trkpt lat="46.06825" lon="3.54779">
        <ele>399.52</ele>
        <time>2014-05-17T14:21:33Z</time>
      </trkpt>
      <trkpt lat="46.06786" lon="3.54691">
        <ele>407.02</ele>
        <time>2014-05-17T14:22:05Z</time>
      </trkpt>
      <trkpt lat="46.06792" lon="3.54582">
        <ele>420.21</ele>
        <time>2014-05-17T14:22:21Z</time>
      </trkpt>
      <trkpt lat="46.06803" lon="3.54474">
        <ele>424.49</ele>
        <time>2014-05-17T14:22:39Z</time>
      </trkpt>
      <trkpt lat="46.06784" lon="3.54373">
        <ele>427.53</ele>
        <time>2014-05-17T14:22:57Z</time>
      </trkpt>
      <trkpt lat="46.06767" lon="3.54273">
        <ele>432.04</ele>
        <time>2014-05-17T14:23:28Z</time>
      </trkpt>
      <trkpt lat="46.06726" lon="3.54185">
        <ele>437.05</ele>
        <time>2014-05-17T14:24:24Z</time>
      </trkpt>
      <trkpt lat="46.06663" lon="3.5412">
        <ele>442.04</ele>
        <time>2014-05-17T14:25:07Z</time>
      </trkpt>
      <trkpt lat="46.06619" lon="3.54034">
        <ele>452.05</ele>
        <time>2014-05-17T14:25:53Z</time>
      </trkpt>
      <trkpt lat="46.06576" lon="3.53951">
        <ele>467.28</ele>
        <time>2014-05-17T14:26:17Z</time>
      </trkpt>
      <trkpt lat="46.06513" lon="3.53884">
        <ele>470.9</ele>
        <time>2014-05-17T14:26:27Z</time>
      </trkpt>
      <trkpt lat="46.06461" lon="3.53803">
        <ele>478.55</ele>
        <time>2014-05-17T14:27:12Z</time>
      </trkpt>
      <trkpt lat="46.06491" lon="3.53706">
        <ele>480.55</ele>
        <time>2014-05-17T14:29:40Z</time>
      </trkpt>
      <trkpt lat="46.06516" lon="3.53607">
        <ele>481.55</ele>
        <time>2014-05-17T14:30:21Z</time>
      </trkpt>
      <trkpt lat="46.06506" lon="3.53502">
        <ele>483.55</ele>
        <time>2014-05-17T14:31:01Z</time>
      </trkpt>
      <trkpt lat="46.06475" lon="3.53408">
        <ele>489.3</ele>
        <time>2014-05-17T14:31:48Z</time>
      </trkpt>
      <trkpt lat="46.0646" lon="3.53305">
        <ele>494.54</ele>
        <time>2014-05-17T14:32:41Z</time>
      </trkpt>
      <trkpt lat="46.06446" lon="3.53202">
        <ele>499.54</ele>
        <time>2014-05-17T14:33:21Z</time>
      </trkpt>
      <trkpt lat="46.06444" lon="3.53097">
        <ele>508.42</ele>
        <time>2014-05-17T14:34:02Z</time>
      </trkpt>
      <trkpt lat="46.06458" lon="3.52992">
        <ele>510.55</ele>
        <time>2014-05-17T14:34:29Z</time>
      </trkpt>
      <trkpt lat="46.06509" lon="3.52919">
        <ele>517.02</ele>
        <time>2014-05-17T14:34:53Z</time>
      </trkpt>
      <trkpt lat="46.065" lon="3.52816">
        <ele>528.42</ele>
        <time>2014-05-17T14:35:12Z</time>
      </trkpt>
      <trkpt lat="46.06464" lon="3.52721">
        <ele>529.55</ele>
        <time>2014-05-17T14:35:30Z</time>
      </trkpt>
      <trkpt lat="46.0643" lon="3.52625">
        <ele>532.93</ele>
        <time>2014-05-17T14:35:49Z</time>
      </trkpt>
      <trkpt lat="46.06406" lon="3.5252">
        <ele>536.53</ele>
        <time>2014-05-17T14:35:59Z</time>
      </trkpt>
      <trkpt lat="46.06365" lon="3.52423">
        <ele>536.05</ele>
        <time>2014-05-17T14:36:07Z</time>
      </trkpt>
      <trkpt lat="46.06317" lon="3.52329">
        <ele>536.05</ele>
        <time>2014-05-17T14:36:15Z</time>
      </trkpt>
      <trkpt lat="46.06279" lon="3.52232">
        <ele>537.3</ele>
        <time>2014-05-17T14:36:22Z</time>
      </trkpt>
      <trkpt lat="46.06267" lon="3.5212">
        <ele>537.55</ele>
        <time>2014-05-17T14:36:29Z</time>
      </trkpt>
      <trkpt lat="46.06271" lon="3.52011">
        <ele>533.02</ele>
        <time>2014-05-17T14:36:35Z</time>
      </trkpt>
      <trkpt lat="46.06268" lon="3.51904">
        <ele>522.85</ele>
        <time>2014-05-17T14:36:42Z</time>
      </trkpt>
      <trkpt lat="46.06309" lon="3.51809">
        <ele>509.06</ele>
        <time>2014-05-17T14:37:31Z</time>
      </trkpt>
      <trkpt lat="46.06297" lon="3.51693">
        <ele>503.07</ele>
        <time>2014-05-17T14:38:24Z</time>
      </trkpt>
      <trkpt lat="46.06284" lon="3.5158">
        <ele>504.55</ele>
        <time>2014-05-17T14:39:12Z</time>
      </trkpt>
      <trkpt lat="46.06278" lon="3.51477">
        <ele>507.52</ele>
        <time>2014-05-17T14:39:55Z</time>
      </trkpt>
      <trkpt lat="46.06271" lon="3.51369">
        <ele>510.27</ele>
        <time>2014-05-17T14:40:25Z</time>
      </trkpt>
      <trkpt lat="46.06272" lon="3.51262">
        <ele>514.68</ele>
        <time>2014-05-17T14:40:42Z</time>
      </trkpt>
      <trkpt lat="46.06269" lon="3.51157">
        <ele>516.55</ele>
        <time>2014-05-17T14:40:54Z</time>
      </trkpt>
      <trkpt lat="46.06299" lon="3.51063">
        <ele>516.55</ele>
        <time>2014-05-17T14:41:20Z</time>
      </trkpt>
      <trkpt lat="46.0636" lon="3.51007">
        <ele>518.55</ele>
        <time>2014-05-17T14:41:44Z</time>
      </trkpt>
      <trkpt lat="46.0643" lon="3.50962">
        <ele>522.38</ele>
        <time>2014-05-17T14:42:01Z</time>
      </trkpt>
      <trkpt lat="46.06499" lon="3.51005">
        <ele>521.68</ele>
        <time>2014-05-17T14:42:09Z</time>
      </trkpt>
      <trkpt lat="46.06537" lon="3.51095">
        <ele>522.54</ele>
        <time>2014-05-17T14:42:18Z</time>
      </trkpt>
      <trkpt lat="46.06578" lon="3.51191">
        <ele>520.68</ele>
        <time>2014-05-17T14:42:28Z</time>
      </trkpt>
      <trkpt lat="46.06617" lon="3.51286">
        <ele>522.3</ele>
        <time>2014-05-17T14:42:38Z</time>
      </trkpt>
      <trkpt lat="46.06658" lon="3.51382">
        <ele>523.55</ele>
        <time>2014-05-17T14:42:49Z</time>
      </trkpt>
      <trkpt lat="46.067" lon="3.5147">
        <ele>523.55</ele>
        <time>2014-05-17T14:42:58Z</time>
      </trkpt>
      <trkpt lat="46.06749" lon="3.51547">
        <ele>522.18</ele>
        <time>2014-05-17T14:43:07Z</time>
      </trkpt>
      <trkpt lat="46.06825" lon="3.51562">
        <ele>509.01</ele>
        <time>2014-05-17T14:43:17Z</time>
      </trkpt>
      <trkpt lat="46.069" lon="3.51569">
        <ele>496.56</ele>
        <time>2014-05-17T14:43:28Z</time>
      </trkpt>
      <trkpt lat="46.06972" lon="3.51578">
        <ele>493.25</ele>
        <time>2014-05-17T14:43:42Z</time>
      </trkpt>
      <trkpt lat="46.07039" lon="3.51618">
        <ele>493.8</ele>
        <time>2014-05-17T14:43:53Z</time>
      </trkpt>
      <trkpt lat="46.07093" lon="3.51693">
        <ele>493.47</ele>
        <time>2014-05-17T14:44:07Z</time>
      </trkpt>
      <trkpt lat="46.07079" lon="3.51796">
        <ele>498.53</ele>
        <time>2014-05-17T14:44:23Z</time>
      </trkpt>
      <trkpt lat="46.0715" lon="3.51818">
        <ele>484.56</ele>
        <time>2014-05-17T14:45:05Z</time>
      </trkpt>
      <trkpt lat="46.07224" lon="3.51773">
        <ele>467.56</ele>
        <time>2014-05-17T14:45:50Z</time>
      </trkpt>
      <trkpt lat="46.073" lon="3.51749">
        <ele>458.55</ele>
        <time>2014-05-17T14:46:41Z</time>
      </trkpt>
      <trkpt lat="46.07372" lon="3.51766">
        <ele>456.55</ele>
        <time>2014-05-17T14:47:29Z</time>
      </trkpt>
      <trkpt lat="46.07425" lon="3.51837">
        <ele>461.52</ele>
        <time>2014-05-17T14:48:35Z</time>
      </trkpt>
      <trkpt lat="46.07461" lon="3.51929">
        <ele>466.55</ele>
        <time>2014-05-17T14:49:29Z</time>
      </trkpt>
      <trkpt lat="46.07509" lon="3.52007">
        <ele>468.55</ele>
        <time>2014-05-17T14:50:21Z</time>
      </trkpt>
      <trkpt lat="46.07583" lon="3.52005">
        <ele>476.29</ele>
        <time>2014-05-17T14:51:05Z</time>
      </trkpt>
      <trkpt lat="46.07656" lon="3.51998">
        <ele>484.49</ele>
        <time>2014-05-17T14:51:50Z</time>
      </trkpt>
      <trkpt lat="46.07729" lon="3.51992">
        <ele>490.3</ele>
        <time>2014-05-17T14:52:27Z</time>
      </trkpt>
      <trkpt lat="46.07802" lon="3.51992">
        <ele>496.42</ele>
        <time>2014-05-17T14:52:58Z</time>
      </trkpt>
      <trkpt lat="46.07875" lon="3.52">
        <ele>503.49</ele>
        <time>2014-05-17T14:53:21Z</time>
      </trkpt>
      <trkpt lat="46.07949" lon="3.51998">
        <ele>507.49</ele>
        <time>2014-05-17T14:53:42Z</time>
      </trkpt>
      <trkpt lat="46.08021" lon="3.52011">
        <ele>516.26</ele>
        <time>2014-05-17T14:54:00Z</time>
      </trkpt>
      <trkpt lat="46.08095" lon="3.52013">
        <ele>520.49</ele>
        <time>2014-05-17T14:54:16Z</time>
      </trkpt>
      <trkpt lat="46.0817" lon="3.5199">
        <ele>524.79</ele>
        <time>2014-05-17T14:54:30Z</time>
      </trkpt>
      <trkpt lat="46.08241" lon="3.51955">
        <ele>523.8</ele>
        <time>2014-05-17T14:54:42Z</time>
      </trkpt>
      <trkpt lat="46.08299" lon="3.51893">
        <ele>523.55</ele>
        <time>2014-05-17T14:54:52Z</time>
      </trkpt>
      <trkpt lat="46.08357" lon="3.5182">
        <ele>521.59</ele>
        <time>2014-05-17T14:55:05Z</time>
      </trkpt>
      <trkpt lat="46.08414" lon="3.51743">
        <ele>519.58</ele>
        <time>2014-05-17T14:55:17Z</time>
      </trkpt>
      <trkpt lat="46.08469" lon="3.51674">
        <ele>519.55</ele>
        <time>2014-05-17T14:55:28Z</time>
      </trkpt>
      <trkpt lat="46.08524" lon="3.51603">
        <ele>519.05</ele>
        <time>2014-05-17T14:55:42Z</time>
      </trkpt>
      <trkpt lat="46.08581" lon="3.51528">
        <ele>519.05</ele>
        <time>2014-05-17T14:55:55Z</time>
      </trkpt>
      <trkpt lat="46.08622" lon="3.51436">
        <ele>521.43</ele>
        <time>2014-05-17T14:56:06Z</time>
      </trkpt>
      <trkpt lat="46.08655" lon="3.51344">
        <ele>520.55</ele>
        <time>2014-05-17T14:56:18Z</time>
      </trkpt>
      <trkpt lat="46.08678" lon="3.51243">
        <ele>518.56</ele>
        <time>2014-05-17T14:56:31Z</time>
      </trkpt>
      <trkpt lat="46.08696" lon="3.51142">
        <ele>515.71</ele>
        <time>2014-05-17T14:56:45Z</time>
      </trkpt>
      <trkpt lat="46.0877" lon="3.51153">
        <ele>506.57</ele>
        <time>2014-05-17T14:57:02Z</time>
      </trkpt>
      <trkpt lat="46.08841" lon="3.51187">
        <ele>506.55</ele>
        <time>2014-05-17T14:57:15Z</time>
      </trkpt>
      <trkpt lat="46.08917" lon="3.51215">
        <ele>508.3</ele>
        <time>2014-05-17T14:57:35Z</time>
      </trkpt>
      <trkpt lat="46.08992" lon="3.51243">
        <ele>509.55</ele>
        <time>2014-05-17T14:57:46Z</time>
      </trkpt>
      <trkpt lat="46.0904" lon="3.51166">
        <ele>506.55</ele>
        <time>2014-05-17T14:58:17Z</time>
      </trkpt>
      <trkpt lat="46.09018" lon="3.51065">
        <ele>502.55</ele>
        <time>2014-05-17T14:58:38Z</time>
      </trkpt>
      <trkpt lat="46.09028" lon="3.5096">
        <ele>500.62</ele>
        <time>2014-05-17T14:58:57Z</time>
      </trkpt>
      <trkpt lat="46.09085" lon="3.50887">
        <ele>501.52</ele>
        <time>2014-05-17T14:59:09Z</time>
      </trkpt>
      <trkpt lat="46.09136" lon="3.50811">
        <ele>504.88</ele>
        <time>2014-05-17T14:59:21Z</time>
      </trkpt>
      <trkpt lat="46.09185" lon="3.50728">
        <ele>506.3</ele>
        <time>2014-05-17T14:59:29Z</time>
      </trkpt>
      <trkpt lat="46.0923" lon="3.50638">
        <ele>505.8</ele>
        <time>2014-05-17T14:59:39Z</time>
      </trkpt>
      <trkpt lat="46.09282" lon="3.50563">
        <ele>497.88</ele>
        <time>2014-05-17T14:59:56Z</time>
      </trkpt>
      <trkpt lat="46.09316" lon="3.5047">
        <ele>483.01</ele>
        <time>2014-05-17T15:00:09Z</time>
      </trkpt>
      <trkpt lat="46.09343" lon="3.50369">
        <ele>480.05</ele>
        <time>2014-05-17T15:00:29Z</time>
      </trkpt>
      <trkpt lat="46.09345" lon="3.50258">
        <ele>473.57</ele>
        <time>2014-05-17T15:00:44Z</time>
      </trkpt>
      <trkpt lat="46.09361" lon="3.50157">
        <ele>472.55</ele>
        <time>2014-05-17T15:01:00Z</time>
      </trkpt>
      <trkpt lat="46.09385" lon="3.50056">
        <ele>474.54</ele>
        <time>2014-05-17T15:01:21Z</time>
      </trkpt>
      <trkpt lat="46.09413" lon="3.49957">
        <ele>474.55</ele>
        <time>2014-05-17T15:01:43Z</time>
      </trkpt>
      <trkpt lat="46.09436" lon="3.49857">
        <ele>474.55</ele>
        <time>2014-05-17T15:02:01Z</time>
      </trkpt>
      <trkpt lat="46.0943" lon="3.49751">
        <ele>470.62</ele>
        <time>2014-05-17T15:02:16Z</time>
      </trkpt>
      <trkpt lat="46.09417" lon="3.4964">
        <ele>469.55</ele>
        <time>2014-05-17T15:02:29Z</time>
      </trkpt>
      <trkpt lat="46.09417" lon="3.4953">
        <ele>468.62</ele>
        <time>2014-05-17T15:02:42Z</time>
      </trkpt>
      <trkpt lat="46.09452" lon="3.49434">
        <ele>468.99</ele>
        <time>2014-05-17T15:02:55Z</time>
      </trkpt>
      <trkpt lat="46.09486" lon="3.49342">
        <ele>468.55</ele>
        <time>2014-05-17T15:03:10Z</time>
      </trkpt>
      <trkpt lat="46.09521" lon="3.49249">
        <ele>466.21</ele>
        <time>2014-05-17T15:03:23Z</time>
      </trkpt>
      <trkpt lat="46.09561" lon="3.49155">
        <ele>463.56</ele>
        <time>2014-05-17T15:03:33Z</time>
      </trkpt>
      <trkpt lat="46.09595" lon="3.49061">
        <ele>463.67</ele>
        <time>2014-05-17T15:03:43Z</time>
      </trkpt>
      <trkpt lat="46.09632" lon="3.48958">
        <ele>461.82</ele>
        <time>2014-05-17T15:03:53Z</time>
      </trkpt>
      <trkpt lat="46.09662" lon="3.48861">
        <ele>457.26</ele>
        <time>2014-05-17T15:04:02Z</time>
      </trkpt>
      <trkpt lat="46.097" lon="3.48769">
        <ele>452.85</ele>
        <time>2014-05-17T15:04:09Z</time>
      </trkpt>
      <trkpt lat="46.09747" lon="3.48674">
        <ele>441.38</ele>
        <time>2014-05-17T15:04:16Z</time>
      </trkpt>
      <trkpt lat="46.09802" lon="3.48597">
        <ele>434.93</ele>
        <time>2014-05-17T15:04:23Z</time>
      </trkpt>
      <trkpt lat="46.09856" lon="3.48518">
        <ele>430.1</ele>
        <time>2014-05-17T15:04:33Z</time>
      </trkpt>
      <trkpt lat="46.09905" lon="3.48434">
        <ele>422.22</ele>
        <time>2014-05-17T15:04:46Z</time>
      </trkpt>
      <trkpt lat="46.09951" lon="3.4835">
        <ele>415.73</ele>
        <time>2014-05-17T15:05:03Z</time>
      </trkpt>
      <trkpt lat="46.10012" lon="3.48294">
        <ele>404.13</ele>
        <time>2014-05-17T15:06:28Z</time>
      </trkpt>
      <trkpt lat="46.10074" lon="3.48228">
        <ele>385.21</ele>
        <time>2014-05-17T15:07:32Z</time>
      </trkpt>
      <trkpt lat="46.10061" lon="3.48125">
        <ele>372.68</ele>
        <time>2014-05-17T15:08:18Z</time>
      </trkpt>
      <trkpt lat="46.10032" lon="3.48028">
        <ele>371.55</ele>
        <time>2014-05-17T15:09:04Z</time>
      </trkpt>
      <trkpt lat="46.10025" lon="3.47923">
        <ele>371.55</ele>
        <time>2014-05-17T15:09:48Z</time>
      </trkpt>
      <trkpt lat="46.10006" lon="3.47822">
        <ele>371.55</ele>
        <time>2014-05-17T15:10:21Z</time>
      </trkpt>
      <trkpt lat="46.09989" lon="3.47722">
        <ele>372.43</ele>
        <time>2014-05-17T15:10:43Z</time>
      </trkpt>
      <trkpt lat="46.09949" lon="3.47634">
        <ele>375.02</ele>
        <time>2014-05-17T15:11:04Z</time>
      </trkpt>
      <trkpt lat="46.10016" lon="3.47589">
        <ele>384.49</ele>
        <time>2014-05-17T15:11:41Z</time>
      </trkpt>
      <trkpt lat="46.10084" lon="3.47552">
        <ele>387.52</ele>
        <time>2014-05-17T15:12:04Z</time>
      </trkpt>
      <trkpt lat="46.10122" lon="3.4746">
        <ele>396.55</ele>
        <time>2014-05-17T15:12:24Z</time>
      </trkpt>
      <trkpt lat="46.10152" lon="3.47359">
        <ele>397.55</ele>
        <time>2014-05-17T15:12:43Z</time>
      </trkpt>
      <trkpt lat="46.10189" lon="3.47267">
        <ele>395.68</ele>
        <time>2014-05-17T15:13:00Z</time>
      </trkpt>
      <trkpt lat="46.10236" lon="3.47183">
        <ele>395.55</ele>
        <time>2014-05-17T15:13:20Z</time>
      </trkpt>
      <trkpt lat="46.10288" lon="3.47108">
        <ele>395.55</ele>
        <time>2014-05-17T15:13:39Z</time>
      </trkpt>
      <trkpt lat="46.10316" lon="3.47011">
        <ele>395.05</ele>
        <time>2014-05-17T15:14:18Z</time>
      </trkpt>
      <trkpt lat="46.10348" lon="3.46917">
        <ele>394.55</ele>
        <time>2014-05-17T15:15:02Z</time>
      </trkpt>
      <trkpt lat="46.1042" lon="3.46889">
        <ele>396.49</ele>
        <time>2014-05-17T15:15:22Z</time>
      </trkpt>
      <trkpt lat="46.10491" lon="3.46857">
        <ele>397.55</ele>
        <time>2014-05-17T15:15:44Z</time>
      </trkpt>
      <trkpt lat="46.10564" lon="3.46833">
        <ele>406.96</ele>
        <time>2014-05-17T15:16:00Z</time>
      </trkpt>
      <trkpt lat="46.10633" lon="3.46792">
        <ele>407.05</ele>
        <time>2014-05-17T15:16:23Z</time>
      </trkpt>
      <trkpt lat="46.10704" lon="3.46758">
        <ele>405.05</ele>
        <time>2014-05-17T15:16:38Z</time>
      </trkpt>
      <trkpt lat="46.10743" lon="3.4667">
        <ele>403.62</ele>
        <time>2014-05-17T15:16:52Z</time>
      </trkpt>
      <trkpt lat="46.10774" lon="3.46574">
        <ele>404.05</ele>
        <time>2014-05-17T15:17:08Z</time>
      </trkpt>
      <trkpt lat="46.10827" lon="3.46492">
        <ele>413.06</ele>
        <time>2014-05-17T15:17:30Z</time>
      </trkpt>
      <trkpt lat="46.10903" lon="3.46479">
        <ele>417.42</ele>
        <time>2014-05-17T15:17:47Z</time>
      </trkpt>
      <trkpt lat="46.10976" lon="3.46464">
        <ele>419.99</ele>
        <time>2014-05-17T15:17:57Z</time>
      </trkpt>
      <trkpt lat="46.11049" lon="3.46464">
        <ele>420.55</ele>
        <time>2014-05-17T15:18:09Z</time>
      </trkpt>
      <trkpt lat="46.11124" lon="3.46475">
        <ele>418.56</ele>
        <time>2014-05-17T15:18:24Z</time>
      </trkpt>
      <trkpt lat="46.11201" lon="3.46477">
        <ele>419.55</ele>
        <time>2014-05-17T15:18:40Z</time>
      </trkpt>
      <trkpt lat="46.11277" lon="3.46475">
        <ele>420.29</ele>
        <time>2014-05-17T15:18:55Z</time>
      </trkpt>
      <trkpt lat="46.11351" lon="3.46481">
        <ele>416.7</ele>
        <time>2014-05-17T15:19:10Z</time>
      </trkpt>
      <trkpt lat="46.11419" lon="3.4652">
        <ele>413.51</ele>
        <time>2014-05-17T15:19:24Z</time>
      </trkpt>
      <trkpt lat="46.11491" lon="3.46496">
        <ele>407.27</ele>
        <time>2014-05-17T15:19:36Z</time>
      </trkpt>
      <trkpt lat="46.11549" lon="3.46432">
        <ele>400.85</ele>
        <time>2014-05-17T15:19:49Z</time>
      </trkpt>
      <trkpt lat="46.11613" lon="3.4637">
        <ele>398.62</ele>
        <time>2014-05-17T15:20:01Z</time>
      </trkpt>
      <trkpt lat="46.11685" lon="3.4635">
        <ele>396.56</ele>
        <time>2014-05-17T15:20:14Z</time>
      </trkpt>
      <trkpt lat="46.11758" lon="3.46344">
        <ele>395.18</ele>
        <time>2014-05-17T15:20:36Z</time>
      </trkpt>
      <trkpt lat="46.11831" lon="3.4631">
        <ele>386.98</ele>
        <time>2014-05-17T15:20:49Z</time>
      </trkpt>
      <trkpt lat="46.11901" lon="3.46277">
        <ele>380.72</ele>
        <time>2014-05-17T15:21:01Z</time>
      </trkpt>
      <trkpt lat="46.11968" lon="3.46241">
        <ele>375.14</ele>
        <time>2014-05-17T15:21:13Z</time>
      </trkpt>
      <trkpt lat="46.1204" lon="3.46222">
        <ele>375.05</ele>
        <time>2014-05-17T15:21:26Z</time>
      </trkpt>
      <trkpt lat="46.12116" lon="3.46215">
        <ele>373.69</ele>
        <time>2014-05-17T15:21:39Z</time>
      </trkpt>
      <trkpt lat="46.12177" lon="3.46273">
        <ele>376.43</ele>
        <time>2014-05-17T15:21:58Z</time>
      </trkpt>
      <trkpt lat="46.12253" lon="3.46269">
        <ele>379.49</ele>
        <time>2014-05-17T15:22:13Z</time>
      </trkpt>
      <trkpt lat="46.12318" lon="3.46209">
        <ele>375.24</ele>
        <time>2014-05-17T15:22:27Z</time>
      </trkpt>
      <trkpt lat="46.12379" lon="3.46142">
        <ele>371.06</ele>
        <time>2014-05-17T15:22:40Z</time>
      </trkpt>
      <trkpt lat="46.12452" lon="3.46117">
        <ele>368.62</ele>
        <time>2014-05-17T15:22:54Z</time>
      </trkpt>
      <trkpt lat="46.12524" lon="3.46076">
        <ele>369.52</ele>
        <time>2014-05-17T15:23:09Z</time>
      </trkpt>
      <trkpt lat="46.12581" lon="3.46009">
        <ele>362.77</ele>
        <time>2014-05-17T15:23:31Z</time>
      </trkpt>
      <trkpt lat="46.12655" lon="3.45988">
        <ele>363.49</ele>
        <time>2014-05-17T15:23:59Z</time>
      </trkpt>
      <trkpt lat="46.12719" lon="3.45941">
        <ele>363.05</ele>
        <time>2014-05-17T15:24:21Z</time>
      </trkpt>
      <trkpt lat="46.12792" lon="3.45913">
        <ele>357.06</ele>
        <time>2014-05-17T15:24:40Z</time>
      </trkpt>
      <trkpt lat="46.12865" lon="3.45893">
        <ele>327.13</ele>
        <time>2014-05-17T15:25:01Z</time>
      </trkpt>
      <trkpt lat="46.12929" lon="3.45947">
        <ele>324.52</ele>
        <time>2014-05-17T15:25:25Z</time>
      </trkpt>
      <trkpt lat="46.13003" lon="3.45958">
        <ele>322.09</ele>
        <time>2014-05-17T15:25:48Z</time>
      </trkpt>
      <trkpt lat="46.13074" lon="3.45926">
        <ele>313.39</ele>
        <time>2014-05-17T15:26:10Z</time>
      </trkpt>
      <trkpt lat="46.13141" lon="3.45881">
        <ele>303.57</ele>
        <time>2014-05-17T15:26:34Z</time>
      </trkpt>
      <trkpt lat="46.13212" lon="3.45902">
        <ele>299.59</ele>
        <time>2014-05-17T15:26:52Z</time>
      </trkpt>
      <trkpt lat="46.13285" lon="3.45928">
        <ele>296.55</ele>
        <time>2014-05-17T15:27:15Z</time>
      </trkpt>
      <trkpt lat="46.1335" lon="3.45881">
        <ele>291.62</ele>
        <time>2014-05-17T15:27:44Z</time>
      </trkpt>
      <trkpt lat="46.13394" lon="3.45795">
        <ele>293.42</ele>
        <time>2014-05-17T15:28:01Z</time>
      </trkpt>
      <trkpt lat="46.13451" lon="3.45726">
        <ele>295.3</ele>
        <time>2014-05-17T15:28:22Z</time>
      </trkpt>
      <trkpt lat="46.13487" lon="3.45629">
        <ele>294.18</ele>
        <time>2014-05-17T15:28:40Z</time>
      </trkpt>
      <trkpt lat="46.13551" lon="3.45574">
        <ele>293.43</ele>
        <time>2014-05-17T15:28:58Z</time>
      </trkpt>
      <trkpt lat="46.13626" lon="3.4558">
        <ele>297.24</ele>
        <time>2014-05-17T15:29:12Z</time>
      </trkpt>
      <trkpt lat="46.13651" lon="3.45479">
        <ele>301.55</ele>
        <time>2014-05-17T15:29:28Z</time>
      </trkpt>
      <trkpt lat="46.13682" lon="3.45383">
        <ele>299.3</ele>
        <time>2014-05-17T15:29:42Z</time>
      </trkpt>
      <trkpt lat="46.13755" lon="3.45383">
        <ele>284.81</ele>
        <time>2014-05-17T15:30:06Z</time>
      </trkpt>
      <trkpt lat="46.13819" lon="3.45432">
        <ele>285.49</ele>
        <time>2014-05-17T15:30:24Z</time>
      </trkpt>
      <trkpt lat="46.13846" lon="3.45329">
        <ele>282.69</ele>
        <time>2014-05-17T15:30:43Z</time>
      </trkpt>
      <trkpt lat="46.13857" lon="3.45226">
        <ele>279.59</ele>
        <time>2014-05-17T15:30:58Z</time>
      </trkpt>
      <trkpt lat="46.13865" lon="3.45123">
        <ele>277.32</ele>
        <time>2014-05-17T15:31:14Z</time>
      </trkpt>
      <trkpt lat="46.13877" lon="3.45018">
        <ele>280.49</ele>
        <time>2014-05-17T15:31:31Z</time>
      </trkpt>
      <trkpt lat="46.13947" lon="3.44975">
        <ele>281.3</ele>
        <time>2014-05-17T15:31:56Z</time>
      </trkpt>
      <trkpt lat="46.1402" lon="3.44977">
        <ele>283.55</ele>
        <time>2014-05-17T15:32:16Z</time>
      </trkpt>
      <trkpt lat="46.1409" lon="3.44945">
        <ele>282.68</ele>
        <time>2014-05-17T15:32:35Z</time>
      </trkpt>
      <trkpt lat="46.14164" lon="3.44934">
        <ele>281.55</ele>
        <time>2014-05-17T15:32:59Z</time>
      </trkpt>
      <trkpt lat="46.14239" lon="3.44923">
        <ele>280.55</ele>
        <time>2014-05-17T15:33:23Z</time>
      </trkpt>
      <trkpt lat="46.14311" lon="3.44939">
        <ele>279.55</ele>
        <time>2014-05-17T15:33:46Z</time>
      </trkpt>
      <trkpt lat="46.14357" lon="3.44857">
        <ele>282.49</ele>
        <time>2014-05-17T15:34:14Z</time>
      </trkpt>
      <trkpt lat="46.14388" lon="3.4476">
        <ele>285.3</ele>
        <time>2014-05-17T15:34:37Z</time>
      </trkpt>
      <trkpt lat="46.14442" lon="3.44692">
        <ele>287.55</ele>
        <time>2014-05-17T15:35:00Z</time>
      </trkpt>
      <trkpt lat="46.14513" lon="3.44666">
        <ele>291.52</ele>
        <time>2014-05-17T15:35:28Z</time>
      </trkpt>
      <trkpt lat="46.14568" lon="3.44591">
        <ele>299.52</ele>
        <time>2014-05-17T15:35:49Z</time>
      </trkpt>
      <trkpt lat="46.14625" lon="3.4452">
        <ele>306.03</ele>
        <time>2014-05-17T15:36:03Z</time>
      </trkpt>
      <trkpt lat="46.14676" lon="3.44443">
        <ele>306.05</ele>
        <time>2014-05-17T15:36:17Z</time>
      </trkpt>
      <trkpt lat="46.14719" lon="3.44353">
        <ele>305.55</ele>
        <time>2014-05-17T15:36:32Z</time>
      </trkpt>
      <trkpt lat="46.14775" lon="3.44286">
        <ele>306.55</ele>
        <time>2014-05-17T15:36:46Z</time>
      </trkpt>
      <trkpt lat="46.14838" lon="3.44228">
        <ele>307.55</ele>
        <time>2014-05-17T15:37:05Z</time>
      </trkpt>
      <trkpt lat="46.149" lon="3.44172">
        <ele>309.49</ele>
        <time>2014-05-17T15:37:23Z</time>
      </trkpt>
      <trkpt lat="46.14971" lon="3.44136">
        <ele>311.55</ele>
        <time>2014-05-17T15:37:41Z</time>
      </trkpt>
      <trkpt lat="46.15044" lon="3.44106">
        <ele>314.55</ele>
        <time>2014-05-17T15:37:59Z</time>
      </trkpt>
      <trkpt lat="46.15114" lon="3.44074">
        <ele>319.55</ele>
        <time>2014-05-17T15:38:14Z</time>
      </trkpt>
      <trkpt lat="46.1518" lon="3.44027">
        <ele>319.62</ele>
        <time>2014-05-17T15:38:28Z</time>
      </trkpt>
      <trkpt lat="46.15253" lon="3.44039">
        <ele>319.55</ele>
        <time>2014-05-17T15:38:47Z</time>
      </trkpt>
      <trkpt lat="46.15329" lon="3.44039">
        <ele>319.55</ele>
        <time>2014-05-17T15:39:12Z</time>
      </trkpt>
      <trkpt lat="46.15402" lon="3.44027">
        <ele>320.43</ele>
        <time>2014-05-17T15:39:36Z</time>
      </trkpt>
      <trkpt lat="46.15472" lon="3.44001">
        <ele>324.3</ele>
        <time>2014-05-17T15:39:59Z</time>
      </trkpt>
      <trkpt lat="46.15543" lon="3.43977">
        <ele>328.3</ele>
        <time>2014-05-17T15:40:25Z</time>
      </trkpt>
      <trkpt lat="46.15615" lon="3.43984">
        <ele>330.49</ele>
        <time>2014-05-17T15:40:48Z</time>
      </trkpt>
      <trkpt lat="46.15687" lon="3.44007">
        <ele>332.49</ele>
        <time>2014-05-17T15:41:13Z</time>
      </trkpt>
      <trkpt lat="46.15754" lon="3.44048">
        <ele>334.55</ele>
        <time>2014-05-17T15:41:37Z</time>
      </trkpt>
      <trkpt lat="46.15826" lon="3.44078">
        <ele>338.49</ele>
        <time>2014-05-17T15:42:05Z</time>
      </trkpt>
      <trkpt lat="46.15894" lon="3.44042">
        <ele>342.43</ele>
        <time>2014-05-17T15:42:36Z</time>
      </trkpt>
      <trkpt lat="46.159" lon="3.43936">
        <ele>349.3</ele>
        <time>2014-05-17T15:43:26Z</time>
      </trkpt>
      <trkpt lat="46.15944" lon="3.43853">
        <ele>357.02</ele>
        <time>2014-05-17T15:44:14Z</time>
      </trkpt>
      <trkpt lat="46.15994" lon="3.43773">
        <ele>364.04</ele>
        <time>2014-05-17T15:44:44Z</time>
      </trkpt>
      <trkpt lat="46.16055" lon="3.43709">
        <ele>371.98</ele>
        <time>2014-05-17T15:45:09Z</time>
      </trkpt>
      <trkpt lat="46.16132" lon="3.43703">
        <ele>386.86</ele>
        <time>2014-05-17T15:45:24Z</time>
      </trkpt>
      <trkpt lat="46.16208" lon="3.43715">
        <ele>389.41</ele>
        <time>2014-05-17T15:45:32Z</time>
      </trkpt>
      <trkpt lat="46.16286" lon="3.43707">
        <ele>390.54</ele>
        <time>2014-05-17T15:45:41Z</time>
      </trkpt>
      <trkpt lat="46.16349" lon="3.43638">
        <ele>389.68</ele>
        <time>2014-05-17T15:45:49Z</time>
      </trkpt>
      <trkpt lat="46.16416" lon="3.43593">
        <ele>385.26</ele>
        <time>2014-05-17T15:45:57Z</time>
      </trkpt>
      <trkpt lat="46.16492" lon="3.43604">
        <ele>377.26</ele>
        <time>2014-05-17T15:46:08Z</time>
      </trkpt>
      <trkpt lat="46.16567" lon="3.43612">
        <ele>365.73</ele>
        <time>2014-05-17T15:46:21Z</time>
      </trkpt>
      <trkpt lat="46.16646" lon="3.43606">
        <ele>361.62</ele>
        <time>2014-05-17T15:46:34Z</time>
      </trkpt>
      <trkpt lat="46.16723" lon="3.43615">
        <ele>359.55</ele>
        <time>2014-05-17T15:46:48Z</time>
      </trkpt>
      <trkpt lat="46.16796" lon="3.43645">
        <ele>352.22</ele>
        <time>2014-05-17T15:47:01Z</time>
      </trkpt>
      <trkpt lat="46.16858" lon="3.43698">
        <ele>348.55</ele>
        <time>2014-05-17T15:47:23Z</time>
      </trkpt>
      <trkpt lat="46.1692" lon="3.4376">
        <ele>347.57</ele>
        <time>2014-05-17T15:47:46Z</time>
      </trkpt>
      <trkpt lat="46.16995" lon="3.4376">
        <ele>346.62</ele>
        <time>2014-05-17T15:47:57Z</time>
      </trkpt>
      <trkpt lat="46.17057" lon="3.437">
        <ele>343.69</ele>
        <time>2014-05-17T15:48:09Z</time>
      </trkpt>
      <trkpt lat="46.17123" lon="3.43657">
        <ele>335.82</ele>
        <time>2014-05-17T15:48:24Z</time>
      </trkpt>
      <trkpt lat="46.17191" lon="3.43619">
        <ele>334.07</ele>
        <time>2014-05-17T15:48:39Z</time>
      </trkpt>
      <trkpt lat="46.17251" lon="3.43554">
        <ele>332.8</ele>
        <time>2014-05-17T15:48:53Z</time>
      </trkpt>
      <trkpt lat="46.17215" lon="3.43462">
        <ele>329.56</ele>
        <time>2014-05-17T15:49:22Z</time>
      </trkpt>
      <trkpt lat="46.17187" lon="3.43364">
        <ele>327.55</ele>
        <time>2014-05-17T15:49:40Z</time>
      </trkpt>
      <trkpt lat="46.17205" lon="3.43261">
        <ele>329.3</ele>
        <time>2014-05-17T15:50:03Z</time>
      </trkpt>
      <trkpt lat="46.17142" lon="3.43194">
        <ele>332.55</ele>
        <time>2014-05-17T15:50:17Z</time>
      </trkpt>
      <trkpt lat="46.17082" lon="3.43134">
        <ele>332.55</ele>
        <time>2014-05-17T15:50:26Z</time>
      </trkpt>
    </trkseg>
  </trk>
</gpx>